Terminal Aerodrome Forecast
Issued by NWS Caribou, ME

Home | Current Version | Previous Version | Text Only | Print | Product List | Glossary On
Versions: 1 2 3 4 5 6 7 8 9 10 11 12 13 14 15 16 17 18 19 20
000
FTUS41 KCAR 291736
TAFBGR
TAF
KBGR 291736Z 2918/3018 30007KT P6SM SKC
     FM292300 VRB03KT P6SM SKC
     FM301000 19007KT P6SM SCT100 BKN250
     FM301500 19011G18KT P6SM VCSH BKN060 OVC100=

USA.gov is the U.S. government's official web portal to all federal, state and local government web resources and services.